Time;durP1;ratioP1;P1;durP2;ratioP2;P2;SDS_P1;SDS_P2;PMS_P1;PMS_P2;Temp;Humidity;BMP_temperature;BMP_pressure;BME280_temperature;BME280_humidity;BME280_pressure;Samples;Min_cycle;Max_cycle;Signal;HPM_P1;HPM_P2
2023/05/12 00:02:22;;;;;;;;;;;;;;;13.27;100.00;101560.91;5106159;28;20022;-70
2023/05/12 00:04:48;;;;;;;13.00;11.17;;;;;;;13.14;100.00;101553.19;5100092;28;20296;-71
2023/05/12 00:07:13;;;;;;;;;;;;;;;13.26;100.00;101560.06;5102847;28;20277;-71
2023/05/12 00:09:40;;;;;;;12.50;11.13;;;;;;;13.09;100.00;101561.63;5102859;28;19911;-71
2023/05/12 00:12:05;;;;;;;11.18;9.05;;;;;;;12.99;100.00;101560.78;5103250;28;20110;-70
2023/05/12 00:14:31;;;;;;;;;;;;;;;13.17;100.00;101560.94;5103695;28;20106;-70
2023/05/12 00:16:56;;;;;;;12.53;8.17;;;;;;;12.95;100.00;101554.03;5101230;28;20016;-71
2023/05/12 00:19:21;;;;;;;;;;;;;;;13.08;100.00;101568.00;5106443;28;20293;-70
2023/05/12 00:21:46;;;;;;;9.67;6.70;;;;;;;12.80;100.00;101561.63;5102861;28;19915;-70
2023/05/12 00:24:12;;;;;;;;;;;;;;;12.98;100.00;101559.09;5104631;28;20364;-71
2023/05/12 00:26:37;;;;;;;9.98;7.22;;;;;;;12.76;100.00;101553.03;5104027;28;20378;-71
2023/05/12 00:29:03;;;;;;;;;;;;;;;12.92;100.00;101555.16;5103129;28;20028;-71
2023/05/12 00:31:31;;;;;;;8.20;7.15;;;;;;;12.73;100.00;101553.31;5105214;28;19912;-71
2023/05/12 00:33:57;;;;;;;8.35;6.78;;;;;;;12.70;100.00;101547.41;5090783;28;20032;-71
2023/05/12 00:36:22;;;;;;;;;;;;;;;12.86;100.00;101551.19;5105355;28;20495;-71
2023/05/12 00:38:47;;;;;;;9.20;7.33;;;;;;;12.67;100.00;101546.69;5102061;27;19912;-71
2023/05/12 00:41:12;;;;;;;;;;;;;;;12.83;100.00;101551.50;5102267;28;20059;-71
2023/05/12 00:43:38;;;;;;;8.45;6.63;;;;;;;12.75;100.00;101548.66;5103651;28;19911;-70
2023/05/12 00:46:04;;;;;;;;;;;;;;;12.86;100.00;101545.84;5097571;28;20536;-70
2023/05/12 00:48:31;;;;;;;9.13;7.78;;;;;;;12.75;100.00;101547.81;5104623;28;20001;-70
2023/05/12 00:50:57;;;;;;;10.50;8.38;;;;;;;12.73;100.00;101547.97;5095969;28;20051;-71
2023/05/12 00:53:23;;;;;;;;;;;;;;;12.85;100.00;101546.00;5104440;28;20024;-70
2023/05/12 00:55:48;;;;;;;8.48;7.57;;;;;;;12.67;100.00;101546.69;5101631;28;19908;-71
2023/05/12 00:58:13;;;;;;;;;;;;;;;12.77;100.00;101541.31;5098706;28;20111;-70
2023/05/12 01:00:39;;;;;;;9.38;8.48;;;;;;;12.61;100.00;101546.41;5102787;27;20038;-71
2023/05/12 01:03:04;;;;;;;;;;;;;;;12.72;100.00;101548.09;5101813;28;20024;-71
2023/05/12 01:05:35;;;;;;;9.00;8.02;;;;;;;12.51;100.00;101541.00;5100630;28;20380;-70
2023/05/12 01:08:02;;;;;;;8.93;8.02;;;;;;;12.51;100.00;101540.19;5091206;28;20027;-71
2023/05/12 01:10:27;;;;;;;8.82;7.95;;;;;;;12.39;100.00;101534.09;5102065;28;20426;-71
2023/05/12 01:12:52;;;;;;;;;;;;;;;12.59;100.00;101538.50;5100718;28;20047;-71
2023/05/12 01:15:18;;;;;;;9.40;8.43;;;;;;;12.39;100.00;101534.09;5096773;28;19912;-70
2023/05/12 01:17:50;;;;;;;;;;;;;;;12.55;100.00;101544.25;5101576;28;20031;-71
2023/05/12 01:20:17;;;;;;;9.77;8.85;;;;;;;12.39;100.00;101539.44;5106769;28;19907;-71
2023/05/12 01:22:44;;;;;;;9.52;8.50;;;;;;;12.39;100.00;101526.91;5102325;28;20030;-71
2023/05/12 01:25:10;;;;;;;10.27;8.60;;;;;;;12.33;100.00;101529.31;5095896;28;20027;-71
2023/05/12 01:27:39;;;;;;;8.93;8.02;;;;;;;12.37;100.00;101531.53;5102644;28;20099;-71
2023/05/12 01:30:07;;;;;;;8.60;7.80;;;;;;;12.35;100.00;101527.34;5103215;28;20028;-70
2023/05/12 01:32:33;;;;;;;8.93;8.02;;;;;;;12.36;100.00;101524.53;5100033;28;20032;-70
2023/05/12 01:34:59;;;;;;;10.70;8.13;;;;;;;12.29;100.00;101526.06;5094879;28;20063;-71
2023/05/12 01:37:25;;;;;;;;;;;;;;;12.48;100.00;101528.78;5102910;28;20097;-71
2023/05/12 01:39:54;;;;;;;9.73;8.82;;;;;;;12.36;100.00;101524.53;5099517;28;19912;-71
2023/05/12 01:42:20;;;;;;;10.80;9.20;;;;;;;12.28;100.00;101517.16;5099647;28;20034;-71
2023/05/12 01:44:45;;;;;;;;;;;;;;;12.48;100.00;101520.75;5101754;28;20027;-71
2023/05/12 01:47:10;;;;;;;10.27;9.18;;;;;;;12.30;100.00;101520.53;5102990;28;19918;-71
2023/05/12 01:49:36;;;;;;;;;;;;;;;12.49;100.00;101521.56;5105889;27;20019;-71
2023/05/12 01:52:01;;;;;;;8.80;8.00;;;;;;;12.35;100.00;101513.97;5103859;28;20031;-71
2023/05/12 01:54:27;;;;;;;;;;;;;;;12.49;100.00;101524.25;5106361;28;20031;-70
2023/05/12 01:56:52;;;;;;;9.73;8.18;;;;;;;12.27;100.00;101517.28;5098966;28;20010;-70
2023/05/12 01:59:17;;;;;;;;;;;;;;;12.40;100.00;101515.22;5100130;28;20432;-71
2023/05/12 02:01:42;;;;;;;8.70;7.90;;;;;;;12.17;100.00;101514.63;5107968;27;19908;-71
2023/05/12 02:04:08;;;;;;;;;;;;;;;12.34;100.00;101521.16;5103699;28;20028;-71
2023/05/12 02:06:33;;;;;;;9.00;8.10;;;;;;;12.23;100.00;101511.38;5103464;28;19912;-71
2023/05/12 02:08:58;;;;;;;;;;;;;;;12.35;100.00;101516.63;5102089;28;20470;-71
2023/05/12 02:11:24;;;;;;;8.25;7.40;;;;;;;12.20;100.00;101511.66;5102675;28;19911;-71
2023/05/12 02:13:49;;;;;;;;;;;;;;;12.32;100.00;101511.53;5100537;28;20042;-71
2023/05/12 02:16:14;;;;;;;7.75;6.78;;;;;;;12.15;100.00;101503.22;5104088;28;19981;-71
2023/05/12 02:18:40;;;;;;;;;;;;;;;12.30;100.00;101504.50;5104071;28;20513;-71
2023/05/12 02:21:05;;;;;;;9.40;7.40;;;;;;;12.07;100.00;101503.03;5102623;28;19908;-71
2023/05/12 02:23:30;;;;;;;;;;;;;;;12.25;100.00;101498.75;5111300;27;20027;-71
2023/05/12 02:25:56;;;;;;;6.90;6.00;;;;;;;12.02;100.00;101494.56;5101406;27;19915;-71
2023/05/12 02:28:21;;;;;;;;;;;;;;;12.18;100.00;101491.38;5104464;28;20266;-71
2023/05/12 02:30:48;;;;;;;7.38;6.28;;;;;;;12.00;100.00;101488.53;5101613;27;20296;-69
2023/05/12 02:33:15;;;;;;;6.97;6.05;;;;;;;11.95;100.00;101490.75;5103136;28;20028;-69
2023/05/12 02:35:40;;;;;;;6.78;6.03;;;;;;;11.93;100.00;101484.72;5103584;28;20054;-69
2023/05/12 02:38:06;;;;;;;;;;;;;;;12.08;100.00;101488.69;5102228;28;20059;-68
2023/05/12 02:40:31;;;;;;;6.83;6.10;;;;;;;11.97;100.00;101488.78;5100119;28;19959;-69
2023/05/12 02:42:56;;;;;;;;;;;;;;;12.09;100.00;101493.03;5102885;28;20904;-69
2023/05/12 02:45:21;;;;;;;6.17;5.57;;;;;;;11.96;100.00;101479.09;5105031;27;19922;-68
2023/05/12 02:47:47;;;;;;;;;;;;;;;12.09;100.00;101477.00;5099987;28;20775;-69
2023/05/12 02:50:12;;;;;;;6.03;5.43;;;;;;;11.96;100.00;101474.59;5101613;28;19912;-70
2023/05/12 02:52:38;;;;;;;;;;;;;;;12.10;100.00;101476.03;5102933;28;20019;-69
2023/05/12 02:55:03;;;;;;;9.37;5.47;;;;;;;11.93;100.00;101474.84;5097234;28;19912;-69
2023/05/12 02:57:32;;;;;;;;;;;;;;;12.07;100.00;101474.47;5100000;28;20774;-69
2023/05/12 02:59:58;;;;;;;6.82;5.43;;;;;;;11.90;100.00;101467.97;5099492;28;19939;-69
2023/05/12 03:02:23;;;;;;;;;;;;;;;12.04;100.00;101466.75;5103190;28;20020;-69
2023/05/12 03:04:49;;;;;;;4.93;4.43;;;;;;;11.88;100.00;101466.34;5100638;28;19911;-68
2023/05/12 03:07:14;;;;;;;;;;;;;;;12.02;100.00;101465.16;5098221;28;20300;-69
2023/05/12 03:09:40;;;;;;;4.20;3.80;;;;;;;11.82;100.00;101458.91;5100024;28;19916;-69
2023/05/12 03:12:05;;;;;;;;;;;;;;;11.94;100.00;101468.53;5101032;28;20111;-69
2023/05/12 03:14:30;;;;;;;4.03;3.63;;;;;;;11.78;100.00;101458.31;5103547;28;20299;-69
2023/05/12 03:16:55;;;;;;;;;;;;;;;11.91;100.00;101455.44;5100499;28;21436;-69
2023/05/12 03:19:21;;;;;;;3.30;3.00;;;;;;;11.73;100.00;101455.22;5101471;28;20355;-68
2023/05/12 03:21:46;;;;;;;;;;;;;;;11.87;100.00;101460.19;5100815;28;20289;-68
2023/05/12 03:24:11;;;;;;;3.37;3.00;;;;;;;11.73;100.00;101448.03;5102222;28;19920;-69
2023/05/12 03:26:36;;;;;;;;;;;;;;;11.85;100.00;101446.09;5102659;28;20047;-68
2023/05/12 03:29:02;;;;;;;3.00;2.80;;;;;;;11.77;100.00;101448.59;5102556;28;19915;-69
2023/05/12 03:31:27;;;;;;;;;;;;;;;11.87;100.00;101443.31;5102570;28;20028;-69
2023/05/12 03:33:52;;;;;;;4.77;2.90;;;;;;;11.75;100.00;101441.72;5099501;28;19919;-68
2023/05/12 03:36:18;;;;;;;;;;;;;;;11.85;100.00;101445.25;5100638;28;20292;-69
2023/05/12 03:38:43;;;;;;;4.53;2.93;;;;;;;11.66;100.00;101432.69;5100378;28;19916;-68
2023/05/12 03:41:08;;;;;;;;;;;;;;;11.80;100.00;101440.31;5099309;28;20286;-68
2023/05/12 03:43:34;;;;;;;4.10;3.57;;;;;;;11.62;100.00;101437.41;5098401;28;19907;-68
2023/05/12 03:46:00;;;;;;;4.40;4.00;;;;;;;11.60;100.00;101431.38;5098234;28;20027;-68
2023/05/12 03:48:25;;;;;;;;;;;;;;;11.71;100.00;101436.63;5101435;28;20027;-68
2023/05/12 03:50:51;;;;;;;6.18;5.03;;;;;;;11.61;100.00;101437.59;5097886;28;19923;-68
2023/05/12 03:53:16;;;;;;;;;;;;;;;11.73;100.00;101440.00;5099596;28;20030;-68
2023/05/12 03:55:41;;;;;;;6.33;5.53;;;;;;;11.63;100.00;101431.09;5107087;27;19935;-68
2023/05/12 03:58:07;;;;;;;;;;;;;;;11.69;100.00;101435.94;5095489;28;20329;-68
2023/05/12 04:00:32;;;;;;;6.72;5.85;;;;;;;11.59;100.00;101421.69;5101277;28;19930;-67
2023/05/12 04:02:57;;;;;;;;;;;;;;;11.65;100.00;101428.31;5097262;28;20032;-68
2023/05/12 04:05:23;;;;;;;8.40;6.93;;;;;;;11.56;100.00;101429.97;5099206;28;19938;-68
2023/05/12 04:07:48;;;;;;;;;;;;;;;11.66;100.00;101428.16;5098928;27;20069;-67
2023/05/12 04:10:13;;;;;;;7.57;6.77;;;;;;;11.58;100.00;101424.47;5101788;27;19908;-68
2023/05/12 04:12:39;;;;;;;;;;;;;;;11.67;100.00;101435.19;5098018;28;20285;-68
2023/05/12 04:15:05;;;;;;;10.02;7.93;;;;;;;11.58;100.00;101421.81;5098281;28;19916;-69
2023/05/12 04:17:30;;;;;;;;;;;;;;;11.67;100.00;101429.00;5100108;28;20050;-68
2023/05/12 04:19:55;;;;;;;10.50;8.00;;;;;;;11.58;100.00;101427.16;5097288;28;19922;-68
2023/05/12 04:22:20;;;;;;;;;;;;;;;11.68;100.00;101430.72;5100918;28;20038;-68
2023/05/12 04:24:46;;;;;;;11.40;8.63;;;;;;;11.59;100.00;101420.81;5098156;28;20006;-68
2023/05/12 04:27:11;;;;;;;;;;;;;;;11.66;100.00;101428.16;5094835;28;20666;-68
2023/05/12 04:29:36;;;;;;;13.57;9.77;;;;;;;11.55;100.00;101420.25;5098189;28;20373;-68
2023/05/12 04:32:01;;;;;;;13.52;9.45;;;;;;;11.60;100.00;101419.84;5097636;28;20297;-68
2023/05/12 04:34:27;;;;;;;;;;;;;;;11.64;100.00;101424.78;5099609;28;20360;-69
2023/05/12 04:36:52;;;;;;;15.55;10.50;;;;;;;11.56;100.00;101418.44;5101838;27;19919;-69
2023/05/12 04:39:17;;;;;;;;;;;;;;;11.63;100.00;101416.91;5097608;28;20054;-69
2023/05/12 04:41:42;;;;;;;15.90;11.10;;;;;;;11.51;100.00;101413.47;5099626;28;19918;-68
2023/05/12 04:44:08;;;;;;;;;;;;;;;11.62;100.00;101424.06;5097033;28;20035;-69
2023/05/12 04:46:33;;;;;;;13.20;10.05;;;;;;;11.54;100.00;101424.75;5100025;28;19911;-70
2023/05/12 04:48:58;;;;;;;;;;;;;;;11.61;100.00;101422.38;5099179;28;20529;-70
2023/05/12 04:51:24;;;;;;;17.55;12.50;;;;;;;11.54;100.00;101426.59;5101832;27;19911;-70
2023/05/12 04:53:49;;;;;;;;;;;;;;;11.61;100.00;101430.41;5097183;28;20083;-70
2023/05/12 04:56:14;;;;;;;19.17;12.97;;;;;;;11.58;100.00;101421.81;5096120;28;19912;-70
2023/05/12 04:58:39;;;;;;;;;;;;;;;11.63;100.00;101416.91;5098311;28;20019;-70
2023/05/12 05:01:05;;;;;;;21.15;13.52;;;;;;;11.60;100.00;101428.69;5098671;28;19919;-70
2023/05/12 05:03:30;;;;;;;;;;;;;;;11.67;100.00;101437.03;5098825;28;20114;-70
2023/05/12 05:05:56;;;;;;;21.70;14.13;;;;;;;11.60;100.00;101434.03;5095021;28;19923;-70
2023/05/12 05:08:21;;;;;;;;;;;;;;;11.67;100.00;101440.53;5095879;28;20282;-70
2023/05/12 05:10:46;;;;;;;22.63;14.07;;;;;;;11.66;100.00;101436.19;5095581;28;19908;-70
2023/05/12 05:13:12;;;;;;;;;;;;;;;11.70;100.00;101440.28;5096488;28;20035;-69
2023/05/12 05:15:37;;;;;;;25.17;17.27;;;;;;;11.67;100.00;101437.03;5097463;28;19998;-70
2023/05/12 05:18:02;;;;;;;;;;;;;;;11.75;100.00;101439.88;5095583;28;20119;-70
2023/05/12 05:20:28;;;;;;;29.25;18.98;;;;;;;11.70;100.00;101442.09;5098374;27;19986;-70
2023/05/12 05:22:53;;;;;;;;;;;;;;;11.78;100.00;101446.75;5095142;28;20039;-70
2023/05/12 05:25:19;;;;;;;30.80;19.83;;;;;;;11.73;100.00;101450.69;5097041;28;19919;-69
2023/05/12 05:27:44;;;;;;;;;;;;;;;11.80;100.00;101451.00;5100681;28;20280;-69
2023/05/12 05:30:09;;;;;;;30.33;20.03;;;;;;;11.80;100.00;101448.34;5097404;28;19939;-69
2023/05/12 05:32:35;;;;;;;;;;;;;;;11.86;100.00;101460.31;5103073;27;20285;-69
2023/05/12 05:35:01;;;;;;;32.28;20.65;;;;;;;11.86;100.00;101449.63;5103881;28;19908;-69
2023/05/12 05:37:26;;;;;;;;;;;;;;;11.92;100.00;101467.78;5102182;28;20041;-69
2023/05/12 05:39:52;;;;;;;34.60;22.08;;;;;;;11.91;100.00;101456.28;5102785;27;19945;-69
2023/05/12 05:42:17;;;;;;;;;;;;;;;11.98;100.00;101459.25;5099586;28;20024;-69
2023/05/12 05:44:43;;;;;;;35.85;22.75;;;;;;;11.95;100.00;101462.19;5104787;27;19970;-69
2023/05/12 05:47:08;;;;;;;;;;;;;;;12.03;100.00;101461.53;5108465;27;20026;-69
2023/05/12 05:49:33;;;;;;;34.67;23.30;;;;;;;12.00;100.00;101470.66;5107396;28;20273;-70
2023/05/12 05:51:58;;;;;;;;;;;;;;;12.07;100.00;101473.63;5109191;28;20281;-69
2023/05/12 05:54:24;;;;;;;38.50;25.05;;;;;;;12.09;100.00;101477.84;5108833;28;19973;-69
2023/05/12 05:56:49;;;;;;;;;;;;;;;12.15;100.00;101479.16;5107163;28;20028;-69
2023/05/12 05:59:15;;;;;;;36.90;23.73;;;;;;;12.20;100.00;101479.59;5106090;28;19918;-69
2023/05/12 06:01:40;;;;;;;;;;;;;;;12.24;100.00;101483.66;5109799;27;20043;-70
2023/05/12 06:04:05;;;;;;;37.53;26.07;;;;;;;12.19;100.00;101475.19;5108188;27;19915;-69
2023/05/12 06:06:30;;;;;;;;;;;;;;;12.28;100.00;101487.75;5102290;28;20351;-69
2023/05/12 06:08:56;;;;;;;37.67;25.80;;;;;;;12.28;100.00;101495.75;5105057;28;19908;-69
2023/05/12 06:11:21;;;;;;;;;;;;;;;12.34;100.00;101499.75;5102229;28;20381;-69
2023/05/12 06:13:46;;;;;;;42.08;24.38;;;;;;;12.34;100.00;101493.53;5107613;28;19912;-69
2023/05/12 06:16:11;;;;;;;;;;;;;;;12.40;100.00;101507.19;5104958;27;20173;-69
2023/05/12 06:18:37;;;;;;;36.10;24.83;;;;;;;12.41;100.00;101511.59;5105350;28;20266;-69
2023/05/12 06:21:03;;;;;;;;;;;;;;;12.48;100.00;101514.53;5107776;28;20704;-69
2023/05/12 06:23:28;;;;;;;35.05;24.80;;;;;;;12.45;100.00;101510.31;5105479;28;20380;-69
2023/05/12 06:25:53;;;;;;;;;;;;;;;12.55;100.00;101521.03;5104377;28;20019;-69
2023/05/12 06:28:18;;;;;;;;;;;;;;;12.59;100.00;101527.78;5105665;28;19922;-69
2023/05/12 06:30:43;;;;;;;;;;;;;;;12.65;100.00;101519.19;5109444;28;19916;-69
2023/05/12 06:33:09;;;;;;;;;;;;;;;12.73;100.00;101521.19;5105950;28;19957;-69
2023/05/12 06:35:34;;;;;;;;;;;;;;;12.80;100.00;101525.00;5106770;28;20286;-69
2023/05/12 06:37:59;;;;;;;;;;;;;;;12.89;100.00;101533.19;5107253;28;20162;-70
2023/05/12 06:40:25;;;;;;;;;;;;;;;12.99;100.00;101532.19;5101131;28;19915;-70
2023/05/12 06:42:50;;;;;;;;;;;;;;;13.10;100.00;101530.34;5110644;27;20302;-69
2023/05/12 06:45:15;;;;;;;;;;;;;;;13.22;100.00;101535.41;5106818;27;20369;-69
2023/05/12 06:47:40;;;;;;;;;;;;;;;13.37;100.00;101524.28;5100887;28;19936;-70
2023/05/12 06:50:06;;;;;;;;;;;;;;;13.52;100.00;101528.19;5105750;28;19914;-70
2023/05/12 06:52:31;;;;;;;;;;;;;;;13.67;100.00;101541.13;5100139;27;19916;-70
2023/05/12 06:54:57;;;;;;;;;;;;;;;13.79;100.00;101534.59;5107651;28;20411;-70
2023/05/12 06:57:22;;;;;;;;;;;;;;;13.93;100.00;101549.38;5108673;27;19911;-70
2023/05/12 06:59:47;;;;;;;;;;;;;;;14.04;100.00;101546.47;5106754;28;19972;-69
2023/05/12 07:02:12;;;;;;;;;;;;;;;14.17;100.00;101546.16;5104834;28;19908;-70
2023/05/12 07:04:37;;;;;;;;;;;;;;;14.29;100.00;101554.88;5106589;28;19911;-70
2023/05/12 07:07:03;;;;;;;;;;;;;;;14.43;100.00;101548.13;5102266;28;20089;-70
2023/05/12 07:09:28;;;;;;;;;;;;;;;14.57;100.00;101553.00;5104907;28;20064;-70
2023/05/12 07:11:53;;;;;;;;;;;;;;;14.73;100.00;101563.94;5099302;28;20013;-70
2023/05/12 07:14:18;;;;;;;;;;;;;;;14.86;100.00;101566.22;5100652;28;19919;-69
2023/05/12 07:16:44;;;;;;;;;;;;;;;14.92;100.00;101570.16;5106828;28;20284;-70
2023/05/12 07:19:09;;;;;;;;;;;;;;;14.99;100.00;101567.69;5104452;28;19923;-70
2023/05/12 07:21:35;;;;;;;;;;;;;;;15.06;100.00;101564.25;5104426;28;19918;-70
2023/05/12 07:24:00;;;;;;;;;;;;;;;15.13;100.00;101559.94;5102089;28;19915;-70
2023/05/12 07:26:27;;;;;;;;;;;;;;;15.22;100.00;101560.84;5107040;27;20007;-70
2023/05/12 07:28:52;;;;;;;;;;;;;;;15.30;100.00;101562.75;5105971;28;19954;-70
2023/05/12 07:31:17;;;;;;;;;;;;;;;15.38;100.00;101568.19;5103283;28;19983;-71
2023/05/12 07:33:43;;;;;;;;;;;;;;;15.42;100.00;101558.81;5103134;28;19934;-70
2023/05/12 07:36:08;;;;;;;;;;;;;;;15.45;100.00;101563.88;5104607;28;20269;-70
2023/05/12 07:38:34;;;;;;;;;;;;;;;15.49;100.00;101559.88;5104588;28;19927;-70
2023/05/12 07:40:59;;;;;;;;;;;;;;;15.61;100.00;101565.00;5102511;27;19912;-70
2023/05/12 07:43:24;;;;;;;;;;;;;;;15.79;100.00;101560.44;5103425;28;19911;-70
2023/05/12 07:45:50;;;;;;;;;;;;;;;16.03;100.00;101566.97;5105783;28;19919;-70
2023/05/12 07:48:15;;;;;;;;;;;;;;;16.31;100.00;101558.66;5100307;28;19918;-70
2023/05/12 07:50:40;;;;;;;;;;;;;;;16.55;100.00;101565.97;5098990;28;19965;-70
2023/05/12 07:53:05;;;;;;;;;;;;;;;16.72;100.00;101572.25;5103814;28;19907;-70
2023/05/12 07:55:32;;;;;;;;;;;;;;;16.95;100.00;101577.88;5102128;28;19919;-70
2023/05/12 07:57:58;;;;;;;;;;;;;;;17.19;100.00;101580.56;5104584;28;19920;-70
2023/05/12 08:00:23;;;;;;;;;;;;;;;17.46;100.00;101578.56;5101465;28;19961;-70
2023/05/12 08:02:48;;;;;;;;;;;;;;;17.56;100.00;101584.59;5104997;28;19908;-70
2023/05/12 08:05:13;;;;;;;;;;;;;;;17.54;100.00;101583.09;5102230;28;19918;-70
2023/05/12 08:07:42;;;;;;;;;;;;;;;17.53;100.00;101581.41;5096402;27;19968;-70
2023/05/12 08:10:08;;;;;;;;;;;;;;;17.57;100.00;101583.59;5098296;28;20014;-70
2023/05/12 08:12:33;;;;;;;;;;;;;;;17.62;100.00;101593.03;5101814;28;20006;-70
2023/05/12 08:14:58;;;;;;;;;;;;;;;17.61;100.00;101589.50;5102775;28;19912;-70
2023/05/12 08:17:23;;;;;;;;;;;;;;;17.56;100.00;101587.31;5100976;28;20333;-70
2023/05/12 08:19:48;;;;;;;;;;;;;;;17.55;100.00;101591.03;5103455;28;19959;-70
2023/05/12 08:22:14;;;;;;;;;;;;;;;17.67;100.00;101590.66;5102450;27;19964;-71
2023/05/12 08:24:39;;;;;;;;;;;;;;;17.84;100.00;101586.91;5101250;28;20408;-70
2023/05/12 08:27:04;;;;;;;;;;;;;;;18.06;100.00;101598.88;5102759;28;19947;-70
2023/05/12 08:29:29;;;;;;;;;;;;;;;18.26;100.00;101593.91;5100740;28;19964;-70
2023/05/12 08:31:56;;;;;;;;;;;;;;;18.49;100.00;101598.53;5102372;28;19912;-70
2023/05/12 08:34:21;;;;;;;;;;;;;;;18.61;100.00;101602.53;5100254;28;20011;-70
2023/05/12 08:36:46;;;;;;;;;;;;;;;18.62;100.00;101598.81;5099027;28;20393;-70
2023/05/12 08:39:12;;;;;;;;;;;;;;;18.61;100.00;101593.59;5100887;28;19998;-70
2023/05/12 08:41:56;;;;;;;;;;;;;;;18.65;100.00;101605.72;5097418;28;19912;-70
2023/05/12 08:44:21;;;;;;;;;;;;;;;18.86;100.00;101610.53;5099072;28;20495;-70
2023/05/12 08:46:47;;;;;;;;;;;;;;;19.07;100.00;101601.75;5102329;27;20163;-70
2023/05/12 08:49:15;;;;;;;;;;;;;;;19.22;100.00;101601.84;5100052;28;19912;-70
2023/05/12 08:51:43;;;;;;;;;;;;;;;19.37;100.00;101602.72;5098813;28;20017;-70
2023/05/12 08:54:10;;;;;;;;;;;;;;;19.50;100.00;101607.50;5102226;28;19908;-70
2023/05/12 08:56:37;;;;;;;;;;;;;;;19.65;100.00;101604.81;5106527;27;19919;-70
2023/05/12 08:59:05;;;;;;;;;;;;;;;20.10;100.00;101615.75;5101339;28;19962;-71
2023/05/12 09:01:33;;;;;;;;;;;;;;;20.56;100.00;101610.06;5100863;28;19915;-70
2023/05/12 09:03:58;;;;;;;;;;;;;;;20.66;100.00;101607.13;5102347;28;19927;-70
2023/05/12 09:06:23;;;;;;;;;;;;;;;20.58;100.00;101608.00;5098641;28;19916;-70
2023/05/12 09:08:48;;;;;;;;;;;;;;;20.45;100.00;101611.41;5102212;28;20362;-70
2023/05/12 09:11:15;;;;;;;;;;;;;;;20.48;100.00;101616.47;5095933;28;19908;-70
2023/05/12 09:13:53;;;;;;;;;;;;;;;20.55;100.00;101616.56;5099728;28;19923;-69
2023/05/12 09:16:23;;;;;;;;;;;;;;;20.67;100.00;101608.78;5099816;28;19988;-70
2023/05/12 09:18:50;;;;;;;;;;;;;;;20.87;100.00;101623.41;5100286;28;19918;-70
2023/05/12 09:21:15;;;;;;;;;;;;;;;21.14;100.00;101621.81;5094516;28;20308;-70
2023/05/12 09:23:50;;;;;;;;;;;;;;;21.39;100.00;101620.56;5100549;28;19912;-70
2023/05/12 09:26:16;;;;;;;;;;;;;;;21.57;100.00;101622.84;5098829;28;19994;-70
2023/05/12 09:28:41;;;;;;;;;;;;;;;21.56;100.00;101619.28;5098335;28;19912;-70
2023/05/12 09:31:13;;;;;;;;;;;;;;;21.64;100.00;101621.88;5098142;28;20380;-70
2023/05/12 09:33:38;;;;;;;;;;;;;;;21.96;100.00;101621.47;5100642;28;19908;-70
2023/05/12 09:36:04;;;;;;;;;;;;;;;22.33;100.00;101620.22;5101752;28;19908;-70
2023/05/12 09:38:29;;;;;;;;;;;;;;;22.72;100.00;101609.72;5099987;28;19920;-70
2023/05/12 09:40:54;;;;;;;;;;;;;;;22.93;100.00;101619.59;5098050;28;20395;-70
2023/05/12 09:43:19;;;;;;;;;;;;;;;23.09;100.00;101613.81;5099474;28;20863;-71
2023/05/12 09:45:46;;;;;;;;;;;;;;;23.32;100.00;101613.44;5103871;28;19927;-70
2023/05/12 09:48:12;;;;;;;;;;;;;;;23.38;100.00;101620.75;5098281;28;19918;-71
2023/05/12 09:50:48;;;;;;;;;;;;;;;23.32;100.00;101621.59;5097686;28;19914;-70
2023/05/12 09:53:16;;;;;;;;;;;;;;;23.11;100.00;101628.06;5098697;28;20420;-70
2023/05/12 09:55:45;;;;;;;;;;;;;;;22.82;100.00;101621.03;5098220;28;20377;-70
2023/05/12 09:58:10;;;;;;;;;;;;;;;22.49;100.00;101619.03;5098207;28;19950;-71
2023/05/12 10:00:39;;;;;;;;;;;;;;;22.21;100.00;101628.09;5098706;28;20008;-70
2023/05/12 10:03:08;;;;;;;;;;;;;;;21.99;100.00;101632.75;5099313;28;19915;-70
2023/05/12 10:05:34;;;;;;;;;;;;;;;21.93;100.00;101628.13;5098062;28;20305;-70
2023/05/12 10:08:01;;;;;;;;;;;;;;;22.08;100.00;101628.00;5099974;28;19925;-70
2023/05/12 10:10:26;;;;;;;;;;;;;;;22.01;100.00;101630.69;5093511;28;19951;-70
2023/05/12 10:12:52;;;;;;;;;;;;;;;22.17;100.00;101634.13;5103618;28;19966;-70
2023/05/12 10:15:18;;;;;;;;;;;;;;;22.63;100.00;101628.94;5099051;27;19923;-70
2023/05/12 10:17:44;;;;;;;;;;;;;;;23.28;100.00;101633.09;5102300;28;19918;-69
2023/05/12 10:20:10;;;;;;;;;;;;;;;23.77;100.00;101621.78;5102268;28;20330;-70
2023/05/12 10:22:37;;;;;;;;;;;;;;;23.85;100.00;101637.09;5101552;28;19916;-70
2023/05/12 10:25:03;;;;;;;;;;;;;;;23.60;100.00;101639.63;5102655;28;19911;-70
2023/05/12 10:27:28;;;;;;;;;;;;;;;23.31;100.00;101635.41;5101157;27;20426;-70
2023/05/12 10:29:54;;;;;;;;;;;;;;;23.48;100.00;101631.22;5103323;28;20295;-70
2023/05/12 10:32:19;;;;;;;;;;;;;;;23.89;100.00;101635.63;5099508;28;19972;-70
2023/05/12 10:34:44;;;;;;;;;;;;;;;24.17;100.00;101631.78;5102049;28;19912;-70
2023/05/12 10:37:09;;;;;;;;;;;;;;;24.43;100.00;101625.41;5100901;27;19911;-70
2023/05/12 10:39:35;;;;;;;;;;;;;;;24.53;100.00;101622.25;5100521;28;19923;-70
2023/05/12 10:42:04;;;;;;;;;;;;;;;24.31;100.00;101641.59;5099549;28;19908;-70
2023/05/12 10:44:29;;;;;;;;;;;;;;;24.35;100.00;101636.56;5101701;28;19912;-70
2023/05/12 10:46:56;;;;;;;;;;;;;;;24.44;100.00;101632.56;5101988;28;19916;-70
2023/05/12 10:49:30;;;;;;;;;;;;;;;24.48;100.00;101636.50;5100440;28;19912;-69
2023/05/12 10:51:58;;;;;;;;;;;;;;;24.35;100.00;101625.66;5099268;28;20018;-70
2023/05/12 10:54:24;;;;;;;;;;;;;;;24.23;100.00;101630.94;5099693;28;20182;-70
2023/05/12 10:56:49;;;;;;;;;;;;;;;24.33;100.00;101633.22;5099946;27;19965;-70
2023/05/12 10:59:17;;;;;;;;;;;;;;;24.30;100.00;101634.50;5099154;28;20670;-70
2023/05/12 11:02:04;;;;;;;;;;;;;;;24.49;100.00;101634.63;5100804;28;20014;-70
2023/05/12 11:04:40;;;;;;;;;;;;;;;24.89;100.00;101635.31;5097053;28;20315;-70
2023/05/12 11:07:09;;;;;;;;;;;;;;;25.02;100.00;101644.47;5098680;28;19964;-70
2023/05/12 11:09:35;;;;;;;;;;;;;;;24.84;100.00;101645.19;5098619;28;19998;-70
2023/05/12 11:12:01;;;;;;;;;;;;;;;25.00;100.00;101652.03;5098437;28;19908;-69
2023/05/12 11:14:26;;;;;;;;;;;;;;;24.95;100.00;101649.97;5097009;28;19965;-70
2023/05/12 11:16:52;;;;;;;;;;;;;;;24.69;100.00;101659.13;5101841;28;19911;-70
2023/05/12 11:19:17;;;;;;;;;;;;;;;24.42;100.00;101656.47;5100137;28;20439;-69
2023/05/12 11:21:42;;;;;;;;;;;;;;;24.18;100.00;101659.91;5101487;28;20352;-69
2023/05/12 11:24:09;;;;;;;;;;;;;;;23.98;100.00;101658.03;5100175;27;19915;-69
2023/05/12 11:26:34;;;;;;;;;;;;;;;23.84;100.00;101664.56;5098502;28;19957;-69
2023/05/12 11:29:02;;;;;;;;;;;;;;;23.65;100.00;101668.91;5100876;27;20006;-70
2023/05/12 11:31:27;;;;;;;;;;;;;;;23.41;100.00;101665.78;5097699;28;19967;-69
2023/05/12 11:34:08;;;;;;;;;;;;;;;23.12;100.00;101667.81;5097411;28;19947;-70
2023/05/12 11:36:37;;;;;;;;;;;;;;;22.82;100.00;101665.38;5095963;28;19939;-69
2023/05/12 11:39:02;;;;;;;;;;;;;;;22.66;100.00;101668.47;5104592;27;19915;-69
2023/05/12 11:41:27;;;;;;;;;;;;;;;22.82;100.00;101667.28;5097223;28;20197;-69
2023/05/12 11:43:53;;;;;;;;;;;;;;;23.11;100.00;101660.72;5102887;28;19952;-70
2023/05/12 11:46:25;;;;;;;;;;;;;;;23.14;100.00;101676.63;5097216;28;19968;-69
2023/05/12 11:48:53;;;;;;;;;;;;;;;23.19;100.00;101671.41;5098849;28;20369;-69
2023/05/12 11:51:18;;;;;;;;;;;;;;;23.36;100.00;101681.91;5095855;28;19923;-70
2023/05/12 11:53:45;;;;;;;;;;;;;;;23.57;100.00;101683.59;5098130;27;19916;-70
2023/05/12 11:56:16;;;;;;;;;;;;;;;23.89;100.00;101675.66;5097514;27;19999;-70
2023/05/12 11:58:50;;;;;;;;;;;;;;;24.24;100.00;101678.13;5097283;28;19912;-70